createdAt,value
2017-07-04T00:00:19.775Z,1016.05
2017-07-04T00:01:28.445Z,1016.05
2017-07-04T00:02:38.024Z,1016.03
2017-07-04T00:03:46.981Z,1016.05
2017-07-04T00:04:55.937Z,1016.06
2017-07-04T00:06:05.270Z,1016.06
2017-07-04T00:07:14.850Z,1016.03
2017-07-04T00:08:23.803Z,1016.04
2017-07-04T00:09:33.076Z,1016.04
2017-07-04T00:10:41.708Z,1016.02
2017-07-04T00:11:51.150Z,1016.07
2017-07-04T00:13:00.106Z,1016.03
2017-07-04T00:14:09.738Z,1016.04
2017-07-04T00:15:18.694Z,1016.02
2017-07-04T00:16:27.648Z,1016.03
2017-07-04T00:17:36.336Z,1016.02
2017-07-04T00:18:45.596Z,1016.07
2017-07-04T00:19:54.868Z,1016.06
2017-07-04T00:21:04.441Z,1016.08
2017-07-04T00:22:13.078Z,1016.07
2017-07-04T00:23:22.202Z,1016.04
2017-07-04T00:24:30.839Z,1015.99
2017-07-04T00:25:40.104Z,1016.03
2017-07-04T00:26:49.081Z,1015.98
2017-07-04T00:27:58.322Z,1016
2017-07-04T00:29:06.964Z,1015.97
2017-07-04T00:30:15.928Z,1015.97
2017-07-04T00:31:24.877Z,1015.97
2017-07-04T00:32:33.822Z,1015.97
2017-07-04T00:33:43.425Z,1016.03
2017-07-04T00:34:52.529Z,1016.07
2017-07-04T00:36:01.495Z,1016.03
2017-07-04T00:37:10.776Z,1015.98
2017-07-04T00:38:19.753Z,1015.98
2017-07-04T00:39:29.037Z,1015.98
2017-07-04T00:40:38.133Z,1016
2017-07-04T00:41:47.403Z,1015.98
2017-07-04T00:42:56.041Z,1015.98
2017-07-04T00:44:04.731Z,1015.99
2017-07-04T00:45:13.679Z,1016.02
2017-07-04T00:46:22.464Z,1015.99
2017-07-04T00:47:31.744Z,1015.99
2017-07-04T00:48:41.329Z,1015.96
2017-07-04T00:49:50.289Z,1015.95
2017-07-04T00:50:59.559Z,1015.92
2017-07-04T00:52:08.812Z,1015.96
2017-07-04T00:53:17.757Z,1015.97
2017-07-04T00:54:27.341Z,1015.98
2017-07-04T00:55:36.293Z,1015.93
2017-07-04T00:56:45.572Z,1015.99
2017-07-04T00:57:54.838Z,1015.93
2017-07-04T00:59:03.789Z,1015.95
2017-07-04T01:00:12.730Z,1015.94
2017-07-04T01:01:21.685Z,1015.94
2017-07-04T01:02:30.960Z,1015.95
2017-07-04T01:03:40.384Z,1015.94
2017-07-04T01:04:49.341Z,1015.88
2017-07-04T01:05:57.985Z,1015.91
2017-07-04T01:07:07.246Z,1015.89
2017-07-04T01:08:16.192Z,1015.87
2017-07-04T01:09:24.926Z,1015.88
2017-07-04T01:10:33.885Z,1015.89
2017-07-04T01:11:43.165Z,1015.86
2017-07-04T01:12:53.075Z,1015.88
2017-07-04T01:14:02.663Z,1015.89
2017-07-04T01:15:11.932Z,1015.87
2017-07-04T01:16:20.570Z,1015.86
2017-07-04T01:17:29.521Z,1015.85
2017-07-04T01:18:38.815Z,1015.88
2017-07-04T01:19:47.765Z,1015.87
2017-07-04T01:20:57.180Z,1015.87
2017-07-04T01:22:06.479Z,1015.87
2017-07-04T01:23:15.126Z,1015.88
2017-07-04T01:24:24.087Z,1015.9
2017-07-04T01:25:33.065Z,1015.87
2017-07-04T01:26:42.017Z,1015.88
2017-07-04T01:27:51.284Z,1015.84
2017-07-04T01:29:00.234Z,1015.85
2017-07-04T01:30:09.175Z,1015.81
2017-07-04T01:31:18.135Z,1015.84
2017-07-04T01:32:27.504Z,1015.82
2017-07-04T01:33:36.160Z,1015.78
2017-07-04T01:34:45.441Z,1015.77
2017-07-04T01:35:54.083Z,1015.77
2017-07-04T01:37:03.347Z,1015.79
2017-07-04T01:38:12.336Z,1015.79
2017-07-04T01:39:21.286Z,1015.79
2017-07-04T01:40:30.236Z,1015.82
2017-07-04T01:41:38.872Z,1015.83
2017-07-04T01:42:48.145Z,1015.87
2017-07-04T01:43:57.195Z,1015.86
2017-07-04T01:45:05.844Z,1015.86
2017-07-04T01:46:15.125Z,1015.84
2017-07-04T01:47:24.401Z,1015.85
2017-07-04T01:48:33.357Z,1015.88
2017-07-04T01:49:42.462Z,1015.86
2017-07-04T01:50:51.418Z,1015.91
2017-07-04T01:52:00.375Z,1015.89
2017-07-04T01:53:09.335Z,1015.87
2017-07-04T01:54:18.608Z,1015.84
2017-07-04T01:55:27.885Z,1015.85
2017-07-04T01:56:36.844Z,1015.81
2017-07-04T01:57:46.436Z,1015.83
2017-07-04T01:58:55.406Z,1015.85
2017-07-04T02:00:04.062Z,1015.88
2017-07-04T02:01:13.033Z,1015.87
2017-07-04T02:02:21.678Z,1015.92
2017-07-04T02:03:30.958Z,1015.93
2017-07-04T02:04:40.234Z,1015.89
2017-07-04T02:05:49.204Z,1015.89
2017-07-04T02:06:58.197Z,1015.88
2017-07-04T02:08:07.166Z,1015.88
2017-07-04T02:09:15.806Z,1015.9
2017-07-04T02:10:25.074Z,1015.88
2017-07-04T02:11:34.035Z,1015.88
2017-07-04T02:12:42.773Z,1015.91
2017-07-04T02:13:51.413Z,1015.87
2017-07-04T02:15:01.045Z,1015.9
2017-07-04T02:16:10.301Z,1015.87
2017-07-04T02:17:19.248Z,1015.87
2017-07-04T02:18:28.624Z,1015.87
2017-07-04T02:19:37.588Z,1015.86
2017-07-04T02:20:46.543Z,1015.89
2017-07-04T02:21:55.182Z,1015.81
2017-07-04T02:23:05.083Z,1015.83
2017-07-04T02:24:14.774Z,1015.84
2017-07-04T02:25:23.413Z,1015.84
2017-07-04T02:26:33.306Z,1015.83
2017-07-04T02:27:42.578Z,1015.82
2017-07-04T02:28:51.229Z,1015.84
2017-07-04T02:30:00.554Z,1015.87
2017-07-04T02:31:09.824Z,1015.89
2017-07-04T02:32:18.766Z,1015.86
2017-07-04T02:33:27.405Z,1015.86
2017-07-04T02:34:36.353Z,1015.84
2017-07-04T02:35:45.133Z,1015.85
2017-07-04T02:36:54.097Z,1015.85
2017-07-04T02:38:03.369Z,1015.85
2017-07-04T02:39:12.632Z,1015.89
2017-07-04T02:40:22.243Z,1015.89
2017-07-04T02:41:31.248Z,1015.89
2017-07-04T02:42:39.891Z,1015.91
2017-07-04T02:43:49.157Z,1015.91
2017-07-04T02:44:58.736Z,1015.95
2017-07-04T02:46:07.681Z,1015.97
2017-07-04T02:47:16.313Z,1015.97
2017-07-04T02:48:25.268Z,1016.01
2017-07-04T02:49:34.539Z,1015.97
2017-07-04T02:50:43.494Z,1015.97
2017-07-04T02:51:52.446Z,1016
2017-07-04T02:53:01.811Z,1016.03
2017-07-04T02:54:10.772Z,1016
2017-07-04T02:55:19.721Z,1016.05
2017-07-04T02:56:28.665Z,1016.03
2017-07-04T02:57:37.922Z,1016.08
2017-07-04T02:58:46.709Z,1016.04
2017-07-04T02:59:56.615Z,1016.06
2017-07-04T03:01:05.562Z,1016.08
2017-07-04T03:02:15.175Z,1016.09
2017-07-04T03:03:24.137Z,1016.14
2017-07-04T03:04:33.494Z,1016.13
2017-07-04T03:05:42.449Z,1016.15
2017-07-04T03:06:51.394Z,1016.15
2017-07-04T03:08:00.674Z,1016.14
2017-07-04T03:09:09.316Z,1016.15
2017-07-04T03:10:19.048Z,1016.19
2017-07-04T03:11:27.998Z,1016.16
2017-07-04T03:12:37.597Z,1016.18
2017-07-04T03:13:46.234Z,1016.18
2017-07-04T03:14:55.189Z,1016.21
2017-07-04T03:16:04.244Z,1016.19
2017-07-04T03:17:13.196Z,1016.18
2017-07-04T03:18:22.485Z,1016.21
2017-07-04T03:19:31.441Z,1016.19
2017-07-04T03:20:40.397Z,1016.19
2017-07-04T03:21:49.203Z,1016.22
2017-07-04T03:22:57.849Z,1016.22
2017-07-04T03:24:07.429Z,1016.26
2017-07-04T03:25:16.069Z,1016.27
2017-07-04T03:26:25.957Z,1016.24
2017-07-04T03:27:35.843Z,1016.25
2017-07-04T03:28:45.104Z,1016.19
2017-07-04T03:29:54.052Z,1016.21
2017-07-04T03:31:02.688Z,1016.23
2017-07-04T03:32:11.636Z,1016.23
2017-07-04T03:33:20.419Z,1016.19
2017-07-04T03:34:29.376Z,1016.2
2017-07-04T03:35:38.325Z,1016.28
2017-07-04T03:36:47.600Z,1016.27
2017-07-04T03:38:22.236Z,1016.27
2017-07-04T03:39:31.192Z,1016.31
2017-07-04T03:40:40.139Z,1016.34
2017-07-04T03:41:49.101Z,1016.32
2017-07-04T03:42:58.679Z,1016.29
2017-07-04T03:44:07.639Z,1016.34
2017-07-04T03:45:16.602Z,1016.24
2017-07-04T03:46:25.557Z,1016.28
2017-07-04T03:47:34.813Z,1016.28
2017-07-04T03:48:43.453Z,1016.26
2017-07-04T03:49:52.407Z,1016.29
2017-07-04T03:51:01.057Z,1016.27
2017-07-04T03:52:09.698Z,1016.24
2017-07-04T03:53:18.655Z,1016.2
2017-07-04T03:54:27.609Z,1016.17
2017-07-04T03:55:36.561Z,1016.22
2017-07-04T03:56:45.826Z,1016.15
2017-07-04T03:57:54.783Z,1016.17
2017-07-04T03:59:03.739Z,1016.12
2017-07-04T04:00:12.706Z,1016.15
2017-07-04T04:01:21.361Z,1016.14
2017-07-04T04:02:30.310Z,1016.12
2017-07-04T04:03:39.274Z,1016.09
2017-07-04T04:04:48.228Z,1016.11
2017-07-04T04:05:57.490Z,1016.14
2017-07-04T04:07:06.746Z,1016.15
2017-07-04T04:08:15.384Z,1016.17
2017-07-04T04:09:24.035Z,1016.17
2017-07-04T04:10:33.621Z,1016.17
2017-07-04T04:11:42.918Z,1016.17
2017-07-04T04:12:52.185Z,1016.16
2017-07-04T04:14:01.546Z,1016.17
2017-07-04T04:15:11.048Z,1016.15
2017-07-04T04:16:20.316Z,1016.19
2017-07-04T04:17:29.296Z,1016.15
2017-07-04T04:18:38.253Z,1016.16
2017-07-04T04:19:46.888Z,1016.21
2017-07-04T04:20:56.160Z,1016.2
2017-07-04T04:22:05.147Z,1016.24
2017-07-04T04:23:14.380Z,1016.27
2017-07-04T04:24:23.337Z,1016.25
2017-07-04T04:25:32.608Z,1016.21
2017-07-04T04:26:41.252Z,1016.24
2017-07-04T04:27:50.823Z,1016.24
2017-07-04T04:29:00.093Z,1016.29
2017-07-04T04:30:09.987Z,1016.33
2017-07-04T04:31:18.940Z,1016.36
2017-07-04T04:32:28.537Z,1016.36
2017-07-04T04:33:38.737Z,1016.45
2017-07-04T04:34:47.694Z,1016.45
2017-07-04T04:35:56.955Z,1016.44
2017-07-04T04:37:05.956Z,1016.49
2017-07-04T04:38:14.910Z,1016.5
2017-07-04T04:39:23.888Z,1016.53
2017-07-04T04:40:33.173Z,1016.52
2017-07-04T04:41:42.441Z,1016.55
2017-07-04T04:42:51.744Z,1016.54
2017-07-04T04:44:00.730Z,1016.56
2017-07-04T04:45:10.317Z,1016.56
2017-07-04T04:46:19.589Z,1016.57
2017-07-04T04:47:28.542Z,1016.54
2017-07-04T04:48:37.484Z,1016.55
2017-07-04T04:49:46.436Z,1016.56
2017-07-04T04:50:55.385Z,1016.55
2017-07-04T04:52:04.332Z,1016.56
2017-07-04T04:53:13.910Z,1016.51
2017-07-04T04:54:22.566Z,1016.52
2017-07-04T04:55:31.517Z,1016.53
2017-07-04T04:56:40.786Z,1016.51
2017-07-04T04:57:50.061Z,1016.5
2017-07-04T04:58:58.711Z,1016.48
2017-07-04T05:00:07.662Z,1016.52
2017-07-04T05:01:16.933Z,1016.53
2017-07-04T05:02:26.265Z,1016.54
2017-07-04T05:03:34.897Z,1016.54
2017-07-04T05:04:43.859Z,1016.59
2017-07-04T05:05:52.828Z,1016.64
2017-07-04T05:07:02.100Z,1016.61
2017-07-04T05:08:10.746Z,1016.62
2017-07-04T05:09:20.025Z,1016.62
2017-07-04T05:10:29.300Z,1016.68
2017-07-04T05:11:38.574Z,1016.66
2017-07-04T05:12:47.844Z,1016.63
2017-07-04T05:13:56.802Z,1016.67
2017-07-04T05:15:06.079Z,1016.69
2017-07-04T05:16:15.349Z,1016.67
2017-07-04T05:17:24.926Z,1016.68
2017-07-04T05:18:34.191Z,1016.67
2017-07-04T05:19:43.145Z,1016.69
2017-07-04T05:20:52.096Z,1016.7
2017-07-04T05:22:01.046Z,1016.7
2017-07-04T05:23:10.323Z,1016.71
2017-07-04T05:24:19.279Z,1016.73
2017-07-04T05:25:28.255Z,1016.72
2017-07-04T05:26:36.907Z,1016.78
2017-07-04T05:27:46.171Z,1016.77
2017-07-04T05:28:55.766Z,1016.76
2017-07-04T05:30:05.045Z,1016.77
2017-07-04T05:31:13.995Z,1016.8
2017-07-04T05:32:23.265Z,1016.8
2017-07-04T05:33:32.536Z,1016.81
2017-07-04T05:34:41.809Z,1016.82
2017-07-04T05:35:51.084Z,1016.81
2017-07-04T05:37:00.667Z,1016.83
2017-07-04T05:38:10.245Z,1016.77
2017-07-04T05:39:19.520Z,1016.8
2017-07-04T05:40:28.795Z,1016.78
2017-07-04T05:41:38.055Z,1016.81
2017-07-04T05:42:47.009Z,1016.8
2017-07-04T05:43:55.651Z,1016.81
2017-07-04T05:45:04.603Z,1016.85
2017-07-04T05:46:14.181Z,1016.83
2017-07-04T05:47:23.136Z,1016.87
2017-07-04T05:48:32.093Z,1016.88
2017-07-04T05:49:40.736Z,1016.87
2017-07-04T05:50:49.997Z,1016.88
2017-07-04T05:51:58.634Z,1016.9
2017-07-04T05:53:07.278Z,1016.86
2017-07-04T05:54:15.925Z,1016.86
2017-07-04T05:55:25.488Z,1016.83
2017-07-04T05:56:34.126Z,1016.82
2017-07-04T05:57:43.089Z,1016.84
2017-07-04T05:58:52.667Z,1016.84
2017-07-04T06:00:01.617Z,1016.85
2017-07-04T06:01:10.267Z,1016.88
2017-07-04T06:02:19.228Z,1016.89
2017-07-04T06:03:28.185Z,1016.88
2017-07-04T06:04:37.458Z,1016.86
2017-07-04T06:05:46.731Z,1016.88
2017-07-04T06:06:56.004Z,1016.89
2017-07-04T06:08:04.978Z,1016.88
2017-07-04T06:09:13.926Z,1016.84
2017-07-04T06:10:23.188Z,1016.84
2017-07-04T06:11:31.823Z,1016.87
2017-07-04T06:12:40.772Z,1016.88
2017-07-04T06:13:49.730Z,1016.85
2017-07-04T06:14:59.003Z,1016.84
2017-07-04T06:16:07.646Z,1016.84
2017-07-04T06:17:16.612Z,1016.88
2017-07-04T06:18:25.252Z,1016.87
2017-07-04T06:19:34.534Z,1016.88
2017-07-04T06:20:44.430Z,1016.84
2017-07-04T06:21:53.707Z,1016.89
2017-07-04T06:23:02.666Z,1016.91
2017-07-04T06:24:11.631Z,1016.89
2017-07-04T06:25:20.592Z,1016.9
2017-07-04T06:26:29.884Z,1016.91
2017-07-04T06:27:38.849Z,1016.9
2017-07-04T06:28:48.114Z,1016.86
2017-07-04T06:29:57.077Z,1016.87
2017-07-04T06:31:06.036Z,1016.82
2017-07-04T06:32:14.986Z,1016.83
2017-07-04T06:33:23.936Z,1016.82
2017-07-04T06:34:32.896Z,1016.82
2017-07-04T06:35:42.163Z,1016.91
2017-07-04T06:36:51.425Z,1016.91
2017-07-04T06:38:00.377Z,1016.88
2017-07-04T06:39:09.017Z,1016.86
2017-07-04T06:40:18.653Z,1016.89
2017-07-04T06:41:27.915Z,1016.85
2017-07-04T06:42:37.202Z,1016.9
2017-07-04T06:43:45.861Z,1016.85
2017-07-04T06:44:54.512Z,1016.86
2017-07-04T06:46:04.121Z,1016.88
2017-07-04T06:47:13.090Z,1016.88
2017-07-04T06:48:21.727Z,1016.9
2017-07-04T06:49:30.748Z,1016.91
2017-07-04T06:50:40.646Z,1016.9
2017-07-04T06:51:49.935Z,1016.89
2017-07-04T06:52:58.904Z,1016.88
2017-07-04T06:54:07.538Z,1016.87
2017-07-04T06:55:16.868Z,1016.85
2017-07-04T06:56:25.504Z,1016.88
2017-07-04T06:57:35.084Z,1016.87
2017-07-04T06:58:43.726Z,1016.89
2017-07-04T06:59:52.675Z,1016.89
2017-07-04T07:01:01.945Z,1016.92
2017-07-04T07:02:10.900Z,1016.93
2017-07-04T07:03:19.539Z,1016.9
2017-07-04T07:04:29.123Z,1016.9
2017-07-04T07:05:37.789Z,1016.94
2017-07-04T07:06:46.425Z,1016.92
2017-07-04T07:07:55.688Z,1016.95
2017-07-04T07:09:05.301Z,1016.93
2017-07-04T07:10:14.016Z,1016.94
2017-07-04T07:11:23.292Z,1016.96
2017-07-04T07:12:31.942Z,1017
2017-07-04T07:13:40.912Z,1016.99
2017-07-04T07:14:50.191Z,1017.02
2017-07-04T07:15:59.147Z,1017.02
2017-07-04T07:17:08.413Z,1017.04
2017-07-04T07:18:17.686Z,1017.02
2017-07-04T07:19:26.957Z,1016.98
2017-07-04T07:20:35.598Z,1016.99
2017-07-04T07:21:44.565Z,1016.95
2017-07-04T07:22:53.832Z,1016.98
2017-07-04T07:24:02.467Z,1016.93
2017-07-04T07:25:12.056Z,1016.87
2017-07-04T07:26:21.012Z,1016.88
2017-07-04T07:27:29.960Z,1016.88
2017-07-04T07:28:38.910Z,1016.88
2017-07-04T07:29:47.872Z,1016.92
2017-07-04T07:30:57.153Z,1016.96
2017-07-04T07:32:06.432Z,1016.98
2017-07-04T07:33:16.029Z,1017
2017-07-04T07:34:25.005Z,1017.04
2017-07-04T07:35:34.283Z,1017.04
2017-07-04T07:36:43.245Z,1017.02
2017-07-04T07:37:52.233Z,1017.05
2017-07-04T07:39:01.513Z,1017.01
2017-07-04T07:40:10.173Z,1017.01
2017-07-04T07:41:19.133Z,1017
2017-07-04T07:42:27.788Z,1017.07
2017-07-04T07:43:36.432Z,1017.05
2017-07-04T07:44:45.394Z,1017.04
2017-07-04T07:45:54.036Z,1017.07
2017-07-04T07:47:03.315Z,1017.04
2017-07-04T07:48:11.970Z,1017.01
2017-07-04T07:49:21.234Z,1016.95
2017-07-04T07:50:30.198Z,1016.9
2017-07-04T07:51:39.156Z,1016.86
2017-07-04T07:52:48.109Z,1016.89
2017-07-04T07:53:57.389Z,1016.94
2017-07-04T07:55:06.039Z,1016.94
2017-07-04T07:56:15.318Z,1016.92
2017-07-04T07:57:24.278Z,1016.94
2017-07-04T07:58:33.244Z,1016.98
2017-07-04T07:59:41.911Z,1016.99
2017-07-04T08:00:51.189Z,1017.02
2017-07-04T08:02:00.775Z,1017.01
2017-07-04T08:03:10.060Z,1017
2017-07-04T08:04:19.035Z,1016.99
2017-07-04T08:05:28.007Z,1017.05
2017-07-04T08:06:36.674Z,1017.01
2017-07-04T08:07:45.635Z,1017.03
2017-07-04T08:08:55.248Z,1017.01
2017-07-04T08:10:04.532Z,1016.97
2017-07-04T08:11:13.807Z,1016.94
2017-07-04T08:12:22.777Z,1016.94
2017-07-04T08:13:31.754Z,1016.94
2017-07-04T08:14:41.029Z,1016.94
2017-07-04T08:15:50.005Z,1016.93
2017-07-04T08:16:58.668Z,1016.92
2017-07-04T08:18:07.325Z,1016.94
2017-07-04T08:19:16.635Z,1016.96
2017-07-04T08:20:25.919Z,1016.94
2017-07-04T08:21:34.576Z,1016.94
2017-07-04T08:22:43.228Z,1016.95
2017-07-04T08:23:51.877Z,1016.94
2017-07-04T08:25:00.525Z,1016.91
2017-07-04T08:26:10.139Z,1016.96
2017-07-04T08:27:19.735Z,1016.96
2017-07-04T08:28:28.701Z,1016.9
2017-07-04T08:29:38.016Z,1016.93
2017-07-04T08:30:47.031Z,1016.9
2017-07-04T08:31:56.374Z,1016.85
2017-07-04T08:33:05.687Z,1016.88
2017-07-04T08:34:14.713Z,1016.85
2017-07-04T08:35:23.682Z,1016.85
2017-07-04T08:36:32.653Z,1016.83
2017-07-04T08:37:41.630Z,1016.81
2017-07-04T08:38:50.914Z,1016.77
2017-07-04T08:39:59.573Z,1016.75
2017-07-04T08:41:08.617Z,1016.74
2017-07-04T08:42:17.597Z,1016.74
2017-07-04T08:43:26.873Z,1016.72
2017-07-04T08:44:35.531Z,1016.77
2017-07-04T08:45:44.199Z,1016.76
2017-07-04T08:46:52.864Z,1016.72
2017-07-04T08:48:01.509Z,1016.73
2017-07-04T08:49:10.802Z,1016.74
2017-07-04T08:50:20.098Z,1016.79
2017-07-04T08:51:29.702Z,1016.8
2017-07-04T08:52:38.669Z,1016.87
2017-07-04T08:53:47.331Z,1016.81
2017-07-04T08:54:56.294Z,1016.82
2017-07-04T08:56:05.266Z,1016.79
2017-07-04T08:57:14.543Z,1016.81
2017-07-04T08:58:23.196Z,1016.82
2017-07-04T08:59:32.171Z,1016.81
2017-07-04T09:00:41.762Z,1016.81
2017-07-04T09:01:50.419Z,1016.82
2017-07-04T09:02:59.697Z,1016.82
2017-07-04T09:04:09.298Z,1016.8
2017-07-04T09:05:17.945Z,1016.8
2017-07-04T09:06:26.904Z,1016.82
2017-07-04T09:07:35.554Z,1016.81
2017-07-04T09:08:44.222Z,1016.79
2017-07-04T09:09:53.191Z,1016.84
2017-07-04T09:11:02.164Z,1016.86
2017-07-04T09:12:11.438Z,1016.82
2017-07-04T09:13:20.414Z,1016.88
2017-07-04T09:14:29.062Z,1016.84
2017-07-04T09:15:37.747Z,1016.86
2017-07-04T09:16:47.733Z,1016.87
2017-07-04T09:17:56.704Z,1016.85
2017-07-04T09:19:05.680Z,1016.85
2017-07-04T09:20:14.949Z,1016.84
2017-07-04T09:21:24.232Z,1016.84
2017-07-04T09:22:33.202Z,1016.81
2017-07-04T09:23:41.880Z,1016.86
2017-07-04T09:24:50.528Z,1016.81
2017-07-04T09:25:59.493Z,1016.82
2017-07-04T09:27:08.142Z,1016.8
2017-07-04T09:28:17.118Z,1016.78
2017-07-04T09:29:26.085Z,1016.79
2017-07-04T09:30:35.057Z,1016.78
2017-07-04T09:31:44.021Z,1016.79
2017-07-04T09:32:53.300Z,1016.78
2017-07-04T09:34:02.587Z,1016.74
2017-07-04T09:35:11.237Z,1016.76
2017-07-04T09:36:19.889Z,1016.76
2017-07-04T09:37:28.547Z,1016.79
2017-07-04T09:38:37.512Z,1016.81
2017-07-04T09:39:46.166Z,1016.76
2017-07-04T09:40:54.820Z,1016.76
2017-07-04T09:42:03.473Z,1016.82
2017-07-04T09:43:12.747Z,1016.78
2017-07-04T09:44:21.741Z,1016.8
2017-07-04T09:45:30.392Z,1016.77
2017-07-04T09:46:39.387Z,1016.77
2017-07-04T09:47:48.365Z,1016.78
2017-07-04T09:48:57.656Z,1016.78
2017-07-04T09:50:06.616Z,1016.73
2017-07-04T09:51:15.612Z,1016.73
2017-07-04T09:52:24.429Z,1016.75
2017-07-04T09:53:33.710Z,1016.73
2017-07-04T09:54:42.679Z,1016.68
2017-07-04T09:55:51.337Z,1016.74
2017-07-04T09:56:59.984Z,1016.75
2017-07-04T09:58:08.628Z,1016.75
2017-07-04T09:59:17.910Z,1016.74
2017-07-04T10:00:26.916Z,1016.69
2017-07-04T10:01:35.589Z,1016.73
2017-07-04T10:02:45.177Z,1016.67
2017-07-04T10:03:54.148Z,1016.74
2017-07-04T10:05:02.798Z,1016.74
2017-07-04T10:06:11.770Z,1016.74
2017-07-04T10:07:21.048Z,1016.73
2017-07-04T10:08:30.324Z,1016.7
2017-07-04T10:09:39.313Z,1016.65
2017-07-04T10:10:48.274Z,1016.66
2017-07-04T10:11:57.576Z,1016.67
2017-07-04T10:13:06.236Z,1016.67
2017-07-04T10:14:15.211Z,1016.65
2017-07-04T10:15:24.189Z,1016.66
2017-07-04T10:16:32.853Z,1016.67
2017-07-04T10:17:42.451Z,1016.66
2017-07-04T10:18:51.102Z,1016.65
2017-07-04T10:20:00.069Z,1016.64
2017-07-04T10:21:09.070Z,1016.67
2017-07-04T10:22:18.046Z,1016.68
2017-07-04T10:23:27.022Z,1016.69
2017-07-04T10:24:36.616Z,1016.67
2017-07-04T10:25:45.345Z,1016.7
2017-07-04T10:26:54.334Z,1016.67
2017-07-04T10:28:03.326Z,1016.7
2017-07-04T10:29:12.915Z,1016.65
2017-07-04T10:30:21.873Z,1016.62
2017-07-04T10:31:30.846Z,1016.62
2017-07-04T10:32:40.128Z,1016.65
2017-07-04T10:33:48.860Z,1016.66
2017-07-04T10:34:57.518Z,1016.63
2017-07-04T10:36:06.550Z,1016.65
2017-07-04T10:37:15.523Z,1016.64
2017-07-04T10:38:24.820Z,1016.63
2017-07-04T10:39:33.468Z,1016.65
2017-07-04T10:40:42.117Z,1016.71
2017-07-04T10:41:50.797Z,1016.69
2017-07-04T10:42:59.756Z,1016.72
2017-07-04T10:44:09.360Z,1016.67
2017-07-04T10:45:18.003Z,1016.66
2017-07-04T10:46:26.975Z,1016.66
2017-07-04T10:47:35.929Z,1016.63
2017-07-04T10:48:44.917Z,1016.65
2017-07-04T10:49:53.888Z,1016.62
2017-07-04T10:51:03.479Z,1016.59
2017-07-04T10:52:12.765Z,1016.61
2017-07-04T10:53:22.067Z,1016.52
2017-07-04T10:54:31.042Z,1016.54
2017-07-04T10:55:39.708Z,1016.53
2017-07-04T10:56:48.659Z,1016.55
2017-07-04T10:57:57.302Z,1016.56
2017-07-04T10:59:05.950Z,1016.54
2017-07-04T11:00:15.557Z,1016.52
2017-07-04T11:01:24.838Z,1016.55
2017-07-04T11:02:34.113Z,1016.52
2017-07-04T11:03:43.124Z,1016.48
2017-07-04T11:04:52.721Z,1016.49
2017-07-04T11:06:02.619Z,1016.54
2017-07-04T11:07:11.593Z,1016.51
2017-07-04T11:08:20.235Z,1016.52
2017-07-04T11:09:28.895Z,1016.48
2017-07-04T11:10:37.538Z,1016.54
2017-07-04T11:11:46.523Z,1016.49
2017-07-04T11:12:55.176Z,1016.47
2017-07-04T11:14:03.833Z,1016.48
2017-07-04T11:15:13.434Z,1016.5
2017-07-04T11:16:23.024Z,1016.46
2017-07-04T11:17:31.982Z,1016.45
2017-07-04T11:18:40.947Z,1016.47
2017-07-04T11:19:49.665Z,1016.49
2017-07-04T11:20:58.623Z,1016.48
2017-07-04T11:22:07.901Z,1016.49
2017-07-04T11:23:16.577Z,1016.45
2017-07-04T11:24:25.230Z,1016.44
2017-07-04T11:25:34.260Z,1016.43
2017-07-04T11:26:43.549Z,1016.43
2017-07-04T11:27:52.836Z,1016.42
2017-07-04T11:29:02.134Z,1016.39
2017-07-04T11:30:11.121Z,1016.39
2017-07-04T11:31:21.023Z,1016.43
2017-07-04T11:32:30.008Z,1016.41
2017-07-04T11:33:38.668Z,1016.39
2017-07-04T11:34:47.637Z,1016.42
2017-07-04T11:35:56.596Z,1016.41
2017-07-04T11:37:05.873Z,1016.42
2017-07-04T11:38:14.534Z,1016.39
2017-07-04T11:39:23.817Z,1016.39
2017-07-04T11:40:33.411Z,1016.38
2017-07-04T11:41:42.688Z,1016.35
2017-07-04T11:42:51.353Z,1016.36
2017-07-04T11:44:00.328Z,1016.35
2017-07-04T11:45:09.290Z,1016.33
2017-07-04T11:46:18.250Z,1016.32
2017-07-04T11:47:27.848Z,1016.3
2017-07-04T11:48:37.445Z,1016.31
2017-07-04T11:49:46.735Z,1016.32
2017-07-04T11:50:55.716Z,1016.3
2017-07-04T11:52:04.992Z,1016.32
2017-07-04T11:53:13.955Z,1016.31
2017-07-04T11:54:22.936Z,1016.31
2017-07-04T11:55:31.893Z,1016.36
2017-07-04T11:56:40.532Z,1016.33
2017-07-04T11:57:49.171Z,1016.28
2017-07-04T11:58:58.452Z,1016.27
2017-07-04T12:00:07.732Z,1016.28
2017-07-04T12:01:17.022Z,1016.28
2017-07-04T12:02:26.932Z,1016.3
2017-07-04T12:03:35.895Z,1016.3
2017-07-04T12:04:44.625Z,1016.27
2017-07-04T12:05:53.587Z,1016.26
2017-07-04T12:07:02.862Z,1016.2
2017-07-04T12:08:12.147Z,1016.19
2017-07-04T12:09:20.793Z,1016.24
2017-07-04T12:10:30.066Z,1016.23
2017-07-04T12:11:39.037Z,1016.2
2017-07-04T12:12:48.003Z,1016.16
2017-07-04T12:13:56.648Z,1016.15
2017-07-04T12:15:05.628Z,1016.14
2017-07-04T12:16:14.584Z,1016.14
2017-07-04T12:17:23.540Z,1016.21
2017-07-04T12:18:32.513Z,1016.18
2017-07-04T12:19:41.802Z,1016.16
2017-07-04T12:20:50.772Z,1016.15
2017-07-04T12:22:00.372Z,1016.11
2017-07-04T12:23:09.325Z,1016.13
2017-07-04T12:24:18.000Z,1016.15
2017-07-04T12:25:26.969Z,1016.09
2017-07-04T12:26:36.614Z,1016.11
2017-07-04T12:27:45.580Z,1016.16
2017-07-04T12:28:54.551Z,1016.13
2017-07-04T12:30:03.842Z,1016.09
2017-07-04T12:31:12.500Z,1016.14
2017-07-04T12:32:21.506Z,1016.13
2017-07-04T12:33:30.154Z,1016.1
2017-07-04T12:34:39.188Z,1016.15
2017-07-04T12:35:48.419Z,1016.07
2017-07-04T12:36:57.394Z,1016.06
2017-07-04T12:38:06.356Z,1016.01
2017-07-04T12:39:15.331Z,1016.05
2017-07-04T12:40:24.294Z,1016.04
2017-07-04T12:41:33.587Z,1016.06
2017-07-04T12:42:43.184Z,1015.99
2017-07-04T12:43:52.153Z,1016.07
2017-07-04T12:45:01.426Z,1016.08
2017-07-04T12:46:10.382Z,1016.09
2017-07-04T12:47:19.358Z,1016.07
2017-07-04T12:48:28.648Z,1016.13
2017-07-04T12:49:37.927Z,1016.08
2017-07-04T12:50:46.578Z,1016.05
2017-07-04T12:51:55.864Z,1016.05
2017-07-04T12:53:04.826Z,1016.04
2017-07-04T12:54:14.095Z,1016.07
2017-07-04T12:55:23.373Z,1015.97
2017-07-04T12:56:32.024Z,1016.04
2017-07-04T12:57:40.683Z,1016.03
2017-07-04T12:58:50.280Z,1015.98
2017-07-04T12:59:59.557Z,1016.04
2017-07-04T13:01:08.535Z,1016.03
2017-07-04T13:02:18.134Z,1015.99
2017-07-04T13:03:27.107Z,1015.98
2017-07-04T13:04:35.786Z,1015.98
2017-07-04T13:05:45.364Z,1015.95
2017-07-04T13:06:54.635Z,1015.93
2017-07-04T13:08:03.589Z,1015.93
2017-07-04T13:09:12.556Z,1015.91
2017-07-04T13:10:21.818Z,1015.9
2017-07-04T13:11:30.777Z,1015.87
2017-07-04T13:12:39.737Z,1015.88
2017-07-04T13:13:48.711Z,1015.85
2017-07-04T13:14:57.738Z,1015.82
2017-07-04T13:16:06.716Z,1015.83
2017-07-04T13:17:15.366Z,1015.8
2017-07-04T13:18:24.022Z,1015.81
2017-07-04T13:19:33.305Z,1015.8
2017-07-04T13:20:42.598Z,1015.82
2017-07-04T13:21:51.562Z,1015.85
2017-07-04T13:23:00.832Z,1015.82
2017-07-04T13:24:09.817Z,1015.78
2017-07-04T13:25:18.530Z,1015.85
2017-07-04T13:26:28.435Z,1015.8
2017-07-04T13:27:37.083Z,1015.77
2017-07-04T13:28:46.054Z,1015.73
2017-07-04T13:29:55.340Z,1015.73
2017-07-04T13:31:04.298Z,1015.69
2017-07-04T13:32:14.550Z,1015.77
2017-07-04T13:33:23.836Z,1015.72
2017-07-04T13:34:33.123Z,1015.74
2017-07-04T13:35:41.806Z,1015.72
2017-07-04T13:36:51.092Z,1015.67
2017-07-04T13:38:00.391Z,1015.68
2017-07-04T13:39:09.674Z,1015.62
2017-07-04T13:40:18.970Z,1015.62
2017-07-04T13:41:28.252Z,1015.63
2017-07-04T13:42:37.210Z,1015.64
2017-07-04T13:43:46.484Z,1015.7
2017-07-04T13:44:55.443Z,1015.67
2017-07-04T13:46:04.418Z,1015.62
2017-07-04T13:47:14.010Z,1015.64
2017-07-04T13:48:23.305Z,1015.64
2017-07-04T13:49:32.269Z,1015.6
2017-07-04T13:50:41.249Z,1015.58
2017-07-04T13:51:50.542Z,1015.61
2017-07-04T13:52:59.819Z,1015.63
2017-07-04T13:54:09.107Z,1015.62
2017-07-04T13:55:18.408Z,1015.57
2017-07-04T13:56:28.016Z,1015.58
2017-07-04T13:57:37.284Z,1015.59